sensor_id;sensor_type;location;lat;lon;timestamp;pressure;altitude;pressure_sealevel;temperature;humidity
10518;BME280;5307;42.548;22.968;2022-08-19T00:01:37;93666.78;;;18.75;76.51
10518;BME280;5307;42.548;22.968;2022-08-19T00:04:30;93662.72;;;18.82;75.54
10518;BME280;5307;42.548;22.968;2022-08-19T00:06:58;93667.25;;;18.51;76.21
10518;BME280;5307;42.548;22.968;2022-08-19T00:09:25;93665.47;;;18.54;76.82
10518;BME280;5307;42.548;22.968;2022-08-19T00:11:54;93670.56;;;18.72;76.31
10518;BME280;5307;42.548;22.968;2022-08-19T00:14:23;93668.50;;;18.39;77.46
10518;BME280;5307;42.548;22.968;2022-08-19T00:16:52;93674.78;;;18.56;76.55
10518;BME280;5307;42.548;22.968;2022-08-19T00:19:20;93675.81;;;18.76;75.44
10518;BME280;5307;42.548;22.968;2022-08-19T00:21:47;93681.88;;;18.74;75.18
10518;BME280;5307;42.548;22.968;2022-08-19T00:24:14;93675.06;;;18.64;75.99
10518;BME280;5307;42.548;22.968;2022-08-19T00:26:42;93680.59;;;18.69;75.49
10518;BME280;5307;42.548;22.968;2022-08-19T00:29:11;93668.75;;;18.41;76.95
10518;BME280;5307;42.548;22.968;2022-08-19T00:31:38;93651.91;;;18.22;77.34
10518;BME280;5307;42.548;22.968;2022-08-19T00:34:07;93676.53;;;18.54;75.55
10518;BME280;5307;42.548;22.968;2022-08-19T00:36:34;93673.78;;;18.37;75.60
10518;BME280;5307;42.548;22.968;2022-08-19T00:39:01;93677.53;;;18.23;75.51
10518;BME280;5307;42.548;22.968;2022-08-19T00:41:28;93672.78;;;18.62;73.92
10518;BME280;5307;42.548;22.968;2022-08-19T00:44:01;93668.03;;;18.74;74.22
10518;BME280;5307;42.548;22.968;2022-08-19T00:46:28;93665.75;;;18.67;75.56
10518;BME280;5307;42.548;22.968;2022-08-19T00:48:56;93644.13;;;18.54;75.63
10518;BME280;5307;42.548;22.968;2022-08-19T00:51:27;93658.19;;;18.51;76.11
10518;BME280;5307;42.548;22.968;2022-08-19T00:53:58;93669.00;;;18.43;75.77
10518;BME280;5307;42.548;22.968;2022-08-19T00:56:26;93666.25;;;18.32;76.75
10518;BME280;5307;42.548;22.968;2022-08-19T00:58:54;93665.72;;;18.28;77.13
10518;BME280;5307;42.548;22.968;2022-08-19T01:01:22;93663.47;;;18.26;76.80
10518;BME280;5307;42.548;22.968;2022-08-19T01:03:50;93664.00;;;18.30;76.57
10518;BME280;5307;42.548;22.968;2022-08-19T01:06:17;93661.97;;;18.36;77.68
10518;BME280;5307;42.548;22.968;2022-08-19T01:08:45;93664.72;;;18.42;77.22
10518;BME280;5307;42.548;22.968;2022-08-19T01:11:12;93655.19;;;18.37;77.01
10518;BME280;5307;42.548;22.968;2022-08-19T01:13:39;93657.41;;;18.00;78.18
10518;BME280;5307;42.548;22.968;2022-08-19T01:16:08;93650.38;;;18.16;77.42
10518;BME280;5307;42.548;22.968;2022-08-19T01:18:39;93656.69;;;18.10;77.69
10518;BME280;5307;42.548;22.968;2022-08-19T01:21:10;93658.94;;;18.29;76.72
10518;BME280;5307;42.548;22.968;2022-08-19T01:23:42;93652.16;;;18.41;76.89
10518;BME280;5307;42.548;22.968;2022-08-19T01:26:11;93661.97;;;18.70;75.20
10518;BME280;5307;42.548;22.968;2022-08-19T01:28:39;93651.41;;;18.40;75.21
10518;BME280;5307;42.548;22.968;2022-08-19T01:31:06;93664.00;;;18.30;76.26
10518;BME280;5307;42.548;22.968;2022-08-19T01:33:36;93663.47;;;18.04;76.27
10518;BME280;5307;42.548;22.968;2022-08-19T01:36:06;93662.47;;;18.18;76.42
10518;BME280;5307;42.548;22.968;2022-08-19T01:38:36;93663.47;;;18.04;76.83
10518;BME280;5307;42.548;22.968;2022-08-19T01:41:05;93663.97;;;18.02;78.40
10518;BME280;5307;42.548;22.968;2022-08-19T01:43:32;93676.03;;;18.22;77.38
10518;BME280;5307;42.548;22.968;2022-08-19T01:46:00;93673.75;;;18.09;79.77
10518;BME280;5307;42.548;22.968;2022-08-19T01:48:33;93669.00;;;18.04;79.82
10518;BME280;5307;42.548;22.968;2022-08-19T01:51:00;93669.50;;;18.02;79.21
10518;BME280;5307;42.548;22.968;2022-08-19T01:53:27;93670.50;;;18.05;81.07
10518;BME280;5307;42.548;22.968;2022-08-19T01:55:54;93679.78;;;18.02;79.52
10518;BME280;5307;42.548;22.968;2022-08-19T01:58:26;93681.78;;;18.01;79.83
10518;BME280;5307;42.548;22.968;2022-08-19T02:00:55;93676.22;;;17.79;80.48
10518;BME280;5307;42.548;22.968;2022-08-19T02:03:23;93677.50;;;17.95;80.61
10518;BME280;5307;42.548;22.968;2022-08-19T02:05:54;93676.75;;;17.89;80.28
10518;BME280;5307;42.548;22.968;2022-08-19T02:08:20;93674.97;;;17.74;80.59
10518;BME280;5307;42.548;22.968;2022-08-19T02:10:47;93669.69;;;17.76;80.37
10518;BME280;5307;42.548;22.968;2022-08-19T02:13:15;93665.91;;;17.79;80.79
10518;BME280;5307;42.548;22.968;2022-08-19T02:15:43;93663.63;;;17.72;80.91
10518;BME280;5307;42.548;22.968;2022-08-19T02:18:10;93659.66;;;17.90;80.75
10518;BME280;5307;42.548;22.968;2022-08-19T02:20:40;93664.84;;;17.66;81.06
10518;BME280;5307;42.548;22.968;2022-08-19T02:23:08;93661.19;;;17.91;79.80
10518;BME280;5307;42.548;22.968;2022-08-19T02:25:35;93677.47;;;17.78;79.24
10518;BME280;5307;42.548;22.968;2022-08-19T02:28:03;93668.22;;;17.98;78.68
10518;BME280;5307;42.548;22.968;2022-08-19T02:30:31;93671.16;;;17.72;78.09
10518;BME280;5307;42.548;22.968;2022-08-19T02:33:00;93676.97;;;17.85;79.05
10518;BME280;5307;42.548;22.968;2022-08-19T02:35:26;93676.97;;;17.79;80.26
10518;BME280;5307;42.548;22.968;2022-08-19T02:37:53;93676.44;;;17.70;79.88
10518;BME280;5307;42.548;22.968;2022-08-19T02:40:38;93677.63;;;17.58;80.44
10518;BME280;5307;42.548;22.968;2022-08-19T02:43:06;93670.06;;;17.47;81.25
10518;BME280;5307;42.548;22.968;2022-08-19T02:45:35;93676.88;;;17.57;82.86
10518;BME280;5307;42.548;22.968;2022-08-19T02:48:03;93675.59;;;17.58;80.45
10518;BME280;5307;42.548;22.968;2022-08-19T02:50:30;93677.56;;;17.41;81.96
10518;BME280;5307;42.548;22.968;2022-08-19T02:52:57;93667.00;;;17.39;81.49
10518;BME280;5307;42.548;22.968;2022-08-19T02:55:24;93672.28;;;17.37;80.92
10518;BME280;5307;42.548;22.968;2022-08-19T02:57:51;93674.22;;;17.26;82.37
10518;BME280;5307;42.548;22.968;2022-08-19T03:00:18;93676.25;;;17.31;81.47
10518;BME280;5307;42.548;22.968;2022-08-19T03:02:44;93670.16;;;17.15;82.33
10518;BME280;5307;42.548;22.968;2022-08-19T03:05:13;93677.72;;;17.20;82.26
10518;BME280;5307;42.548;22.968;2022-08-19T03:07:40;93679.81;;;17.37;82.88
10518;BME280;5307;42.548;22.968;2022-08-19T03:10:07;93689.34;;;17.41;81.39
10518;BME280;5307;42.548;22.968;2022-08-19T03:12:36;93687.09;;;17.40;82.10
10518;BME280;5307;42.548;22.968;2022-08-19T03:15:04;93677.66;;;17.09;81.38
10518;BME280;5307;42.548;22.968;2022-08-19T03:17:32;93687.47;;;17.16;82.62
10518;BME280;5307;42.548;22.968;2022-08-19T03:20:00;93690.22;;;17.10;82.46
10518;BME280;5307;42.548;22.968;2022-08-19T03:22:28;93688.63;;;16.98;82.87
10518;BME280;5307;42.548;22.968;2022-08-19T03:24:55;93691.13;;;16.96;82.91
10518;BME280;5307;42.548;22.968;2022-08-19T03:27:22;93684.38;;;16.97;82.77
10518;BME280;5307;42.548;22.968;2022-08-19T03:29:49;93674.91;;;17.09;82.56
10518;BME280;5307;42.548;22.968;2022-08-19T03:32:16;93690.53;;;17.18;81.64
10518;BME280;5307;42.548;22.968;2022-08-19T03:34:43;93686.63;;;16.99;82.06
10518;BME280;5307;42.548;22.968;2022-08-19T03:37:11;93684.63;;;16.99;82.63
10518;BME280;5307;42.548;22.968;2022-08-19T03:39:40;93687.78;;;17.24;81.42
10518;BME280;5307;42.548;22.968;2022-08-19T03:42:10;93692.06;;;16.82;83.87
10518;BME280;5307;42.548;22.968;2022-08-19T03:44:37;93692.94;;;16.68;84.76
10518;BME280;5307;42.548;22.968;2022-08-19T03:47:05;93695.22;;;17.06;82.85
10518;BME280;5307;42.548;22.968;2022-08-19T03:49:32;93697.38;;;16.91;83.03
10518;BME280;5307;42.548;22.968;2022-08-19T03:52:01;93693.28;;;16.81;84.11
10518;BME280;5307;42.548;22.968;2022-08-19T03:54:30;93678.09;;;16.97;82.98
10518;BME280;5307;42.548;22.968;2022-08-19T03:56:58;93698.91;;;16.98;83.01
10518;BME280;5307;42.548;22.968;2022-08-19T03:59:27;93700.69;;;17.01;83.07
10518;BME280;5307;42.548;22.968;2022-08-19T04:01:56;93703.00;;;17.08;83.50
10518;BME280;5307;42.548;22.968;2022-08-19T04:04:23;93705.06;;;16.76;84.56
10518;BME280;5307;42.548;22.968;2022-08-19T04:06:51;93709.47;;;16.99;84.10
10518;BME280;5307;42.548;22.968;2022-08-19T04:09:19;93707.75;;;17.07;83.54
10518;BME280;5307;42.548;22.968;2022-08-19T04:11:48;93700.25;;;17.13;83.76
10518;BME280;5307;42.548;22.968;2022-08-19T04:14:19;93712.28;;;17.10;84.16
10518;BME280;5307;42.548;22.968;2022-08-19T04:16:47;93724.59;;;17.15;84.48
10518;BME280;5307;42.548;22.968;2022-08-19T04:19:15;93727.84;;;17.13;84.49
10518;BME280;5307;42.548;22.968;2022-08-19T04:21:44;93730.44;;;17.23;84.46
10518;BME280;5307;42.548;22.968;2022-08-19T04:24:12;93734.53;;;17.38;82.70
10518;BME280;5307;42.548;22.968;2022-08-19T04:26:39;93736.28;;;17.36;82.85
10518;BME280;5307;42.548;22.968;2022-08-19T04:29:09;93736.28;;;17.41;83.92
10518;BME280;5307;42.548;22.968;2022-08-19T04:31:38;93731.53;;;17.42;83.87
10518;BME280;5307;42.548;22.968;2022-08-19T04:34:08;93736.91;;;17.68;83.41
10518;BME280;5307;42.548;22.968;2022-08-19T04:36:37;93740.16;;;17.61;81.46
10518;BME280;5307;42.548;22.968;2022-08-19T04:39:05;93735.66;;;17.63;80.30
10518;BME280;5307;42.548;22.968;2022-08-19T04:41:33;93733.34;;;17.50;80.23
10518;BME280;5307;42.548;22.968;2022-08-19T04:44:17;93729.44;;;17.74;79.59
10518;BME280;5307;42.548;22.968;2022-08-19T04:46:45;93726.38;;;17.66;78.96
10518;BME280;5307;42.548;22.968;2022-08-19T04:49:13;93725.91;;;17.73;78.93
10518;BME280;5307;42.548;22.968;2022-08-19T04:51:42;93722.44;;;17.78;79.31
10518;BME280;5307;42.548;22.968;2022-08-19T04:54:12;93726.50;;;18.00;80.19
10518;BME280;5307;42.548;22.968;2022-08-19T04:56:42;93727.81;;;18.21;79.63
10518;BME280;5307;42.548;22.968;2022-08-19T04:59:09;93712.44;;;18.15;78.73
10518;BME280;5307;42.548;22.968;2022-08-19T05:01:37;93721.03;;;18.39;77.70
10518;BME280;5307;42.548;22.968;2022-08-19T05:04:06;93723.81;;;18.39;78.48
10518;BME280;5307;42.548;22.968;2022-08-19T05:06:33;93730.59;;;18.32;77.33
10518;BME280;5307;42.548;22.968;2022-08-19T05:09:01;93721.81;;;18.62;75.83
10518;BME280;5307;42.548;22.968;2022-08-19T05:11:30;93728.38;;;18.59;77.64
10518;BME280;5307;42.548;22.968;2022-08-19T05:13:57;93726.13;;;18.68;77.04
10518;BME280;5307;42.548;22.968;2022-08-19T05:16:26;93723.59;;;18.71;76.41
10518;BME280;5307;42.548;22.968;2022-08-19T05:18:53;93727.84;;;18.55;77.13
10518;BME280;5307;42.548;22.968;2022-08-19T05:21:40;93733.63;;;18.57;77.50
10518;BME280;5307;42.548;22.968;2022-08-19T05:24:25;93737.44;;;18.65;78.14
10518;BME280;5307;42.548;22.968;2022-08-19T05:26:53;93730.41;;;18.75;77.52
10518;BME280;5307;42.548;22.968;2022-08-19T05:29:23;93730.13;;;18.67;77.82
10518;BME280;5307;42.548;22.968;2022-08-19T05:31:51;93734.88;;;19.12;76.55
10518;BME280;5307;42.548;22.968;2022-08-19T05:34:19;93726.00;;;19.41;75.89
10518;BME280;5307;42.548;22.968;2022-08-19T05:36:50;93730.91;;;19.93;72.96
10518;BME280;5307;42.548;22.968;2022-08-19T05:39:24;93731.13;;;19.95;73.65
10518;BME280;5307;42.548;22.968;2022-08-19T05:41:53;93734.50;;;20.24;71.84
10518;BME280;5307;42.548;22.968;2022-08-19T05:44:26;93733.22;;;20.71;71.33
10518;BME280;5307;42.548;22.968;2022-08-19T05:46:53;93734.81;;;20.91;69.27
10518;BME280;5307;42.548;22.968;2022-08-19T05:49:21;93733.41;;;21.09;69.91
10518;BME280;5307;42.548;22.968;2022-08-19T05:51:50;93731.38;;;21.40;67.47
10518;BME280;5307;42.548;22.968;2022-08-19T05:54:17;93740.75;;;21.07;66.74
10518;BME280;5307;42.548;22.968;2022-08-19T05:56:45;93721.91;;;21.54;66.89
10518;BME280;5307;42.548;22.968;2022-08-19T05:59:15;93738.16;;;21.14;66.11
10518;BME280;5307;42.548;22.968;2022-08-19T06:01:44;93727.19;;;21.52;65.95
10518;BME280;5307;42.548;22.968;2022-08-19T06:04:12;93724.84;;;22.42;63.37
10518;BME280;5307;42.548;22.968;2022-08-19T06:06:40;93715.78;;;21.99;62.86
10518;BME280;5307;42.548;22.968;2022-08-19T06:09:08;93724.41;;;21.52;63.57
10518;BME280;5307;42.548;22.968;2022-08-19T06:11:38;93725.09;;;21.82;63.98
10518;BME280;5307;42.548;22.968;2022-08-19T06:14:08;93729.06;;;22.11;62.36
10518;BME280;5307;42.548;22.968;2022-08-19T06:16:36;93730.56;;;21.69;63.15
10518;BME280;5307;42.548;22.968;2022-08-19T06:19:05;93731.06;;;21.68;62.82
10518;BME280;5307;42.548;22.968;2022-08-19T06:21:35;93733.19;;;21.80;62.56
10518;BME280;5307;42.548;22.968;2022-08-19T06:24:04;93722.03;;;22.05;61.61
10518;BME280;5307;42.548;22.968;2022-08-19T06:26:33;93725.44;;;22.16;60.84
10518;BME280;5307;42.548;22.968;2022-08-19T06:29:01;93730.41;;;22.93;58.85
10518;BME280;5307;42.548;22.968;2022-08-19T06:31:29;93721.84;;;22.91;59.15
10518;BME280;5307;42.548;22.968;2022-08-19T06:33:59;93729.75;;;23.46;57.47
10518;BME280;5307;42.548;22.968;2022-08-19T06:36:33;93733.75;;;23.77;55.44
10518;BME280;5307;42.548;22.968;2022-08-19T06:39:02;93722.97;;;24.34;53.34
10518;BME280;5307;42.548;22.968;2022-08-19T06:41:33;93721.09;;;23.76;56.84
10518;BME280;5307;42.548;22.968;2022-08-19T06:44:02;93729.22;;;23.47;56.01
10518;BME280;5307;42.548;22.968;2022-08-19T06:46:29;93730.75;;;23.88;55.98
10518;BME280;5307;42.548;22.968;2022-08-19T06:48:56;93735.19;;;23.12;55.84
10518;BME280;5307;42.548;22.968;2022-08-19T06:51:24;93728.16;;;24.16;54.69
10518;BME280;5307;42.548;22.968;2022-08-19T06:53:52;93725.59;;;24.05;55.27
10518;BME280;5307;42.548;22.968;2022-08-19T06:56:22;93724.28;;;24.33;52.73
10518;BME280;5307;42.548;22.968;2022-08-19T06:58:51;93727.63;;;24.65;52.11
10518;BME280;5307;42.548;22.968;2022-08-19T07:01:19;93731.25;;;24.26;53.05
10518;BME280;5307;42.548;22.968;2022-08-19T07:03:46;93730.72;;;24.96;52.14
10518;BME280;5307;42.548;22.968;2022-08-19T07:06:18;93729.38;;;25.10;52.26
10518;BME280;5307;42.548;22.968;2022-08-19T07:08:46;93734.94;;;24.08;53.26
10518;BME280;5307;42.548;22.968;2022-08-19T07:11:14;93730.88;;;25.11;50.45
10518;BME280;5307;42.548;22.968;2022-08-19T07:13:43;93712.59;;;25.80;48.84
10518;BME280;5307;42.548;22.968;2022-08-19T07:16:14;93719.34;;;25.64;48.34
10518;BME280;5307;42.548;22.968;2022-08-19T07:18:41;93722.44;;;26.10;48.32
10518;BME280;5307;42.548;22.968;2022-08-19T07:21:12;93719.28;;;25.77;51.69
10518;BME280;5307;42.548;22.968;2022-08-19T07:23:39;93714.00;;;26.02;52.33
10518;BME280;5307;42.548;22.968;2022-08-19T07:26:06;93721.28;;;25.69;52.13
10518;BME280;5307;42.548;22.968;2022-08-19T07:28:33;93714.91;;;26.33;49.31
10518;BME280;5307;42.548;22.968;2022-08-19T07:31:05;93715.78;;;26.20;48.08
10518;BME280;5307;42.548;22.968;2022-08-19T07:33:33;93716.66;;;26.15;49.20
10518;BME280;5307;42.548;22.968;2022-08-19T07:36:03;93713.34;;;26.24;47.66
10518;BME280;5307;42.548;22.968;2022-08-19T07:38:31;93716.06;;;26.45;48.10
10518;BME280;5307;42.548;22.968;2022-08-19T07:40:58;93707.75;;;26.76;47.79
10518;BME280;5307;42.548;22.968;2022-08-19T07:43:25;93721.47;;;26.43;48.52
10518;BME280;5307;42.548;22.968;2022-08-19T07:45:52;93723.00;;;26.52;47.66
10518;BME280;5307;42.548;22.968;2022-08-19T07:48:21;93724.31;;;26.58;48.60
10518;BME280;5307;42.548;22.968;2022-08-19T07:50:52;93712.69;;;27.29;47.32
10518;BME280;5307;42.548;22.968;2022-08-19T07:53:19;93710.44;;;27.50;47.63
10518;BME280;5307;42.548;22.968;2022-08-19T07:55:46;93711.91;;;26.90;49.12
10518;BME280;5307;42.548;22.968;2022-08-19T07:58:15;93714.00;;;27.20;48.01
10518;BME280;5307;42.548;22.968;2022-08-19T08:00:44;93715.84;;;27.02;49.20
10518;BME280;5307;42.548;22.968;2022-08-19T08:03:12;93709.28;;;26.92;47.95
10518;BME280;5307;42.548;22.968;2022-08-19T08:05:40;93706.16;;;27.34;48.96
10518;BME280;5307;42.548;22.968;2022-08-19T08:08:25;93700.91;;;27.45;48.18
10518;BME280;5307;42.548;22.968;2022-08-19T08:11:09;93700.94;;;28.24;48.45
10518;BME280;5307;42.548;22.968;2022-08-19T08:13:36;93700.63;;;28.60;48.84
10518;BME280;5307;42.548;22.968;2022-08-19T08:16:04;93696.50;;;28.61;46.71
10518;BME280;5307;42.548;22.968;2022-08-19T08:18:32;93697.84;;;28.52;45.82
10518;BME280;5307;42.548;22.968;2022-08-19T08:21:07;93689.75;;;28.16;47.04
10518;BME280;5307;42.548;22.968;2022-08-19T08:23:35;93699.28;;;28.13;46.70
10518;BME280;5307;42.548;22.968;2022-08-19T08:26:02;93702.53;;;27.94;47.38
10518;BME280;5307;42.548;22.968;2022-08-19T08:28:30;93691.03;;;28.30;48.01
10518;BME280;5307;42.548;22.968;2022-08-19T08:30:57;93690.13;;;28.60;44.33
10518;BME280;5307;42.548;22.968;2022-08-19T08:33:26;93686.44;;;28.50;45.95
10518;BME280;5307;42.548;22.968;2022-08-19T08:35:53;93688.88;;;29.11;43.40
10518;BME280;5307;42.548;22.968;2022-08-19T08:38:20;93679.13;;;29.12;42.14
10518;BME280;5307;42.548;22.968;2022-08-19T08:40:50;93685.91;;;29.59;43.72
10518;BME280;5307;42.548;22.968;2022-08-19T08:43:24;93682.28;;;29.16;42.93
10518;BME280;5307;42.548;22.968;2022-08-19T08:45:59;93688.63;;;29.67;43.51
10518;BME280;5307;42.548;22.968;2022-08-19T08:48:35;93680.13;;;29.92;42.46
10518;BME280;5307;42.548;22.968;2022-08-19T08:51:09;93680.69;;;29.90;45.40
10518;BME280;5307;42.548;22.968;2022-08-19T08:53:38;93675.38;;;29.94;43.51
10518;BME280;5307;42.548;22.968;2022-08-19T08:56:08;93681.22;;;30.13;44.77
10518;BME280;5307;42.548;22.968;2022-08-19T08:58:45;93681.69;;;29.85;41.11
10518;BME280;5307;42.548;22.968;2022-08-19T09:01:13;93671.06;;;30.62;39.64
10518;BME280;5307;42.548;22.968;2022-08-19T09:03:41;93673.63;;;30.51;41.47
10518;BME280;5307;42.548;22.968;2022-08-19T09:06:14;93674.84;;;30.13;40.58
10518;BME280;5307;42.548;22.968;2022-08-19T09:08:51;93663.00;;;30.14;40.28
10518;BME280;5307;42.548;22.968;2022-08-19T09:11:32;93663.56;;;30.30;40.05
10518;BME280;5307;42.548;22.968;2022-08-19T09:14:08;93664.09;;;30.46;40.23
10518;BME280;5307;42.548;22.968;2022-08-19T09:16:37;93659.59;;;30.60;43.38
10518;BME280;5307;42.548;22.968;2022-08-19T09:19:07;93654.41;;;30.84;41.66
10518;BME280;5307;42.548;22.968;2022-08-19T09:21:34;93647.59;;;30.96;40.03
10518;BME280;5307;42.548;22.968;2022-08-19T09:24:05;93646.00;;;31.30;37.89
10518;BME280;5307;42.548;22.968;2022-08-19T09:26:34;93650.88;;;30.93;37.98
10518;BME280;5307;42.548;22.968;2022-08-19T09:29:01;93645.28;;;31.02;38.72
10518;BME280;5307;42.548;22.968;2022-08-19T09:31:31;93641.78;;;31.77;37.67
10518;BME280;5307;42.548;22.968;2022-08-19T09:33:58;93640.91;;;32.04;36.39
10518;BME280;5307;42.548;22.968;2022-08-19T09:36:27;93634.97;;;31.90;36.28
10518;BME280;5307;42.548;22.968;2022-08-19T09:38:58;93635.41;;;31.21;33.81
10518;BME280;5307;42.548;22.968;2022-08-19T09:41:26;93633.84;;;31.47;37.68
10518;BME280;5307;42.548;22.968;2022-08-19T09:43:56;93627.81;;;31.79;35.88
10518;BME280;5307;42.548;22.968;2022-08-19T09:46:26;93624.94;;;31.60;35.07
10518;BME280;5307;42.548;22.968;2022-08-19T09:48:53;93624.84;;;31.87;35.04
10518;BME280;5307;42.548;22.968;2022-08-19T09:51:24;93617.72;;;31.96;35.13
10518;BME280;5307;42.548;22.968;2022-08-19T09:53:53;93618.28;;;32.23;33.79
10518;BME280;5307;42.548;22.968;2022-08-19T09:56:22;93618.91;;;31.93;32.20
10518;BME280;5307;42.548;22.968;2022-08-19T09:58:49;93611.00;;;31.72;30.59
10518;BME280;5307;42.548;22.968;2022-08-19T10:01:19;93605.81;;;31.87;31.62
10518;BME280;5307;42.548;22.968;2022-08-19T10:03:48;93609.09;;;32.13;31.84
10518;BME280;5307;42.548;22.968;2022-08-19T10:06:15;93604.63;;;32.29;31.84
10518;BME280;5307;42.548;22.968;2022-08-19T10:08:42;93604.91;;;32.24;32.51
10518;BME280;5307;42.548;22.968;2022-08-19T10:11:09;93593.75;;;32.06;32.30
10518;BME280;5307;42.548;22.968;2022-08-19T10:13:36;93603.44;;;32.32;34.69
10518;BME280;5307;42.548;22.968;2022-08-19T10:16:05;93599.09;;;32.22;30.60
10518;BME280;5307;42.548;22.968;2022-08-19T10:18:34;93589.81;;;32.60;33.13
10518;BME280;5307;42.548;22.968;2022-08-19T10:21:07;93582.56;;;32.47;31.23
10518;BME280;5307;42.548;22.968;2022-08-19T10:23:35;93586.47;;;32.32;30.62
10518;BME280;5307;42.548;22.968;2022-08-19T10:26:03;93586.31;;;32.40;31.91
10518;BME280;5307;42.548;22.968;2022-08-19T10:28:31;93578.53;;;32.50;31.60
10518;BME280;5307;42.548;22.968;2022-08-19T10:31:02;93580.59;;;32.59;31.24
10518;BME280;5307;42.548;22.968;2022-08-19T10:33:29;93577.53;;;32.26;32.15
10518;BME280;5307;42.548;22.968;2022-08-19T10:36:00;93578.13;;;32.34;29.68
10518;BME280;5307;42.548;22.968;2022-08-19T10:38:27;93576.66;;;32.74;29.80
10518;BME280;5307;42.548;22.968;2022-08-19T10:40:55;93574.84;;;32.78;30.31
10518;BME280;5307;42.548;22.968;2022-08-19T10:43:22;93572.97;;;32.71;30.63
10518;BME280;5307;42.548;22.968;2022-08-19T10:45:52;93573.13;;;32.64;29.79
10518;BME280;5307;42.548;22.968;2022-08-19T10:48:22;93574.34;;;32.61;31.59
10518;BME280;5307;42.548;22.968;2022-08-19T10:50:48;93569.34;;;32.40;29.60
10518;BME280;5307;42.548;22.968;2022-08-19T10:53:34;93568.19;;;32.74;29.93
10518;BME280;5307;42.548;22.968;2022-08-19T10:56:08;93566.38;;;32.88;30.61
10518;BME280;5307;42.548;22.968;2022-08-19T10:58:53;93561.78;;;32.73;31.01
10518;BME280;5307;42.548;22.968;2022-08-19T11:01:22;93561.66;;;32.81;29.12
10518;BME280;5307;42.548;22.968;2022-08-19T11:03:50;93564.47;;;32.81;28.83
10518;BME280;5307;42.548;22.968;2022-08-19T11:06:18;93562.91;;;32.99;28.52
10518;BME280;5307;42.548;22.968;2022-08-19T11:08:47;93553.84;;;32.91;31.05
10518;BME280;5307;42.548;22.968;2022-08-19T11:11:14;93556.13;;;32.83;28.96
10518;BME280;5307;42.548;22.968;2022-08-19T11:13:41;93554.19;;;32.76;30.14
10518;BME280;5307;42.548;22.968;2022-08-19T11:16:10;93555.06;;;32.78;28.89
10518;BME280;5307;42.548;22.968;2022-08-19T11:21:46;93547.50;;;32.81;28.67
10518;BME280;5307;42.548;22.968;2022-08-19T11:24:17;93542.50;;;32.51;31.47
10518;BME280;5307;42.548;22.968;2022-08-19T11:26:54;93541.75;;;32.60;28.66
10518;BME280;5307;42.548;22.968;2022-08-19T11:29:24;93539.25;;;32.54;33.09
10518;BME280;5307;42.548;22.968;2022-08-19T11:31:53;93532.38;;;32.57;31.47
10518;BME280;5307;42.548;22.968;2022-08-19T11:34:22;93529.94;;;32.83;30.58
10518;BME280;5307;42.548;22.968;2022-08-19T11:36:51;93543.50;;;32.65;31.30
10518;BME280;5307;42.548;22.968;2022-08-19T11:39:21;93530.72;;;32.64;28.06
10518;BME280;5307;42.548;22.968;2022-08-19T11:41:50;93532.59;;;32.81;30.32
10518;BME280;5307;42.548;22.968;2022-08-19T11:44:18;93522.56;;;32.58;32.82
10518;BME280;5307;42.548;22.968;2022-08-19T11:46:45;93525.59;;;32.41;29.41
10518;BME280;5307;42.548;22.968;2022-08-19T11:49:13;93516.19;;;32.48;29.09
10518;BME280;5307;42.548;22.968;2022-08-19T11:51:42;93510.22;;;32.54;29.56
10518;BME280;5307;42.548;22.968;2022-08-19T11:54:14;93518.97;;;32.58;30.71
10518;BME280;5307;42.548;22.968;2022-08-19T11:56:44;93512.56;;;32.67;28.41
10518;BME280;5307;42.548;22.968;2022-08-19T11:59:10;93508.41;;;32.58;29.78
10518;BME280;5307;42.548;22.968;2022-08-19T12:01:37;93501.44;;;32.49;29.48
10518;BME280;5307;42.548;22.968;2022-08-19T12:04:06;93507.03;;;32.69;31.42
10518;BME280;5307;42.548;22.968;2022-08-19T12:06:33;93485.88;;;32.39;29.77
10518;BME280;5307;42.548;22.968;2022-08-19T12:11:40;93497.88;;;32.49;27.97
10518;BME280;5307;42.548;22.968;2022-08-19T12:14:10;93493.25;;;32.54;32.22
10518;BME280;5307;42.548;22.968;2022-08-19T12:16:39;93491.75;;;32.12;27.80
10518;BME280;5307;42.548;22.968;2022-08-19T12:19:06;93481.31;;;32.14;34.13
10518;BME280;5307;42.548;22.968;2022-08-19T12:21:36;93482.91;;;32.27;28.86
10518;BME280;5307;42.548;22.968;2022-08-19T12:24:05;93476.41;;;32.15;31.79
10518;BME280;5307;42.548;22.968;2022-08-19T12:26:33;93477.94;;;32.47;29.64
10518;BME280;5307;42.548;22.968;2022-08-19T12:29:00;93480.28;;;32.60;28.30
10518;BME280;5307;42.548;22.968;2022-08-19T12:31:28;93468.47;;;32.33;28.36
10518;BME280;5307;42.548;22.968;2022-08-19T12:33:56;93477.88;;;32.16;29.96
10518;BME280;5307;42.548;22.968;2022-08-19T12:36:23;93468.81;;;32.17;27.68
10518;BME280;5307;42.548;22.968;2022-08-19T12:38:51;93467.59;;;32.30;29.17
10518;BME280;5307;42.548;22.968;2022-08-19T12:41:19;93471.63;;;32.27;28.84
10518;BME280;5307;42.548;22.968;2022-08-19T12:43:48;93460.56;;;31.90;27.67
10518;BME280;5307;42.548;22.968;2022-08-19T12:46:16;93458.78;;;31.85;29.41
10518;BME280;5307;42.548;22.968;2022-08-19T12:48:45;93463.28;;;32.29;27.79
10518;BME280;5307;42.548;22.968;2022-08-19T12:51:15;93457.53;;;32.08;29.65
10518;BME280;5307;42.548;22.968;2022-08-19T12:53:42;93448.88;;;32.15;32.58
10518;BME280;5307;42.548;22.968;2022-08-19T12:56:11;93445.47;;;32.17;27.84
10518;BME280;5307;42.548;22.968;2022-08-19T12:58:40;93441.47;;;32.10;nan
10518;BME280;5307;42.548;22.968;2022-08-19T13:01:08;93445.94;;;32.04;28.27
10518;BME280;5307;42.548;22.968;2022-08-19T13:03:35;93442.25;;;31.92;28.71
10518;BME280;5307;42.548;22.968;2022-08-19T13:06:04;93440.75;;;32.00;29.84
10518;BME280;5307;42.548;22.968;2022-08-19T13:08:31;93431.47;;;32.29;33.11
10518;BME280;5307;42.548;22.968;2022-08-19T13:11:06;93432.34;;;32.22;31.37
10518;BME280;5307;42.548;22.968;2022-08-19T13:13:33;93428.66;;;32.19;29.75
10518;BME280;5307;42.548;22.968;2022-08-19T13:16:00;93433.88;;;32.13;27.85